sensor_id;sensor_type;location;lat;lon;timestamp;temperature;humidity
26687;DHT22;14298;50.900;4.648;2023-03-26T00:01:51;9.50;97.10
26687;DHT22;14298;50.900;4.648;2023-03-26T00:04:20;9.50;97.10
26687;DHT22;14298;50.900;4.648;2023-03-26T00:06:48;9.60;97.10
26687;DHT22;14298;50.900;4.648;2023-03-26T00:09:17;9.60;97.10
26687;DHT22;14298;50.900;4.648;2023-03-26T00:11:45;9.70;97.10
26687;DHT22;14298;50.900;4.648;2023-03-26T00:14:14;9.70;97.10
26687;DHT22;14298;50.900;4.648;2023-03-26T00:16:44;9.80;97.10
26687;DHT22;14298;50.900;4.648;2023-03-26T00:19:13;9.80;97.10
26687;DHT22;14298;50.900;4.648;2023-03-26T00:21:43;9.80;97.10
26687;DHT22;14298;50.900;4.648;2023-03-26T00:24:12;9.90;97.10
26687;DHT22;14298;50.900;4.648;2023-03-26T00:26:43;9.90;97.10
26687;DHT22;14298;50.900;4.648;2023-03-26T00:29:13;9.90;97.10
26687;DHT22;14298;50.900;4.648;2023-03-26T00:31:43;9.90;97.10
26687;DHT22;14298;50.900;4.648;2023-03-26T00:34:12;9.90;97.10
26687;DHT22;14298;50.900;4.648;2023-03-26T00:36:41;9.90;97.10
26687;DHT22;14298;50.900;4.648;2023-03-26T00:39:10;9.80;97.10
26687;DHT22;14298;50.900;4.648;2023-03-26T00:41:38;9.80;97.10
26687;DHT22;14298;50.900;4.648;2023-03-26T00:44:09;9.70;97.10
26687;DHT22;14298;50.900;4.648;2023-03-26T00:46:38;9.70;97.10
26687;DHT22;14298;50.900;4.648;2023-03-26T00:49:06;9.60;97.10
26687;DHT22;14298;50.900;4.648;2023-03-26T00:51:36;9.60;97.10
26687;DHT22;14298;50.900;4.648;2023-03-26T00:54:05;9.60;97.10
26687;DHT22;14298;50.900;4.648;2023-03-26T00:56:34;9.50;97.10
26687;DHT22;14298;50.900;4.648;2023-03-26T00:59:03;9.50;97.10
26687;DHT22;14298;50.900;4.648;2023-03-26T01:01:31;9.50;97.10
26687;DHT22;14298;50.900;4.648;2023-03-26T01:06:49;9.40;97.10
26687;DHT22;14298;50.900;4.648;2023-03-26T01:09:38;9.40;97.10
26687;DHT22;14298;50.900;4.648;2023-03-26T01:12:12;9.30;97.10
26687;DHT22;14298;50.900;4.648;2023-03-26T01:14:40;9.30;97.10
26687;DHT22;14298;50.900;4.648;2023-03-26T01:17:09;9.20;97.10
26687;DHT22;14298;50.900;4.648;2023-03-26T01:22:32;9.10;97.10
26687;DHT22;14298;50.900;4.648;2023-03-26T01:25:02;9.10;97.10
26687;DHT22;14298;50.900;4.648;2023-03-26T01:27:49;9.00;97.10
26687;DHT22;14298;50.900;4.648;2023-03-26T01:30:39;8.90;97.10
26687;DHT22;14298;50.900;4.648;2023-03-26T01:35:57;8.90;97.10
26687;DHT22;14298;50.900;4.648;2023-03-26T01:38:54;8.90;97.10
26687;DHT22;14298;50.900;4.648;2023-03-26T01:46:42;8.90;97.10
26687;DHT22;14298;50.900;4.648;2023-03-26T01:49:12;8.80;97.10
26687;DHT22;14298;50.900;4.648;2023-03-26T01:51:41;8.80;97.10
26687;DHT22;14298;50.900;4.648;2023-03-26T01:54:15;8.70;97.10
26687;DHT22;14298;50.900;4.648;2023-03-26T01:56:56;8.70;97.10
26687;DHT22;14298;50.900;4.648;2023-03-26T01:59:41;8.70;97.10
26687;DHT22;14298;50.900;4.648;2023-03-26T02:02:16;8.60;97.10
26687;DHT22;14298;50.900;4.648;2023-03-26T02:05:16;8.50;97.10
26687;DHT22;14298;50.900;4.648;2023-03-26T02:07:53;8.50;97.10
26687;DHT22;14298;50.900;4.648;2023-03-26T02:10:35;8.60;97.10
26687;DHT22;14298;50.900;4.648;2023-03-26T02:13:05;8.60;97.10
26687;DHT22;14298;50.900;4.648;2023-03-26T02:15:34;8.60;97.10
26687;DHT22;14298;50.900;4.648;2023-03-26T02:18:02;8.50;97.10
26687;DHT22;14298;50.900;4.648;2023-03-26T02:20:31;8.50;97.10
26687;DHT22;14298;50.900;4.648;2023-03-26T02:22:59;8.50;97.10
26687;DHT22;14298;50.900;4.648;2023-03-26T02:25:28;8.50;97.10
26687;DHT22;14298;50.900;4.648;2023-03-26T02:27:56;8.50;97.10
26687;DHT22;14298;50.900;4.648;2023-03-26T02:30:25;8.50;97.10
26687;DHT22;14298;50.900;4.648;2023-03-26T02:32:55;8.40;97.10
26687;DHT22;14298;50.900;4.648;2023-03-26T02:35:25;8.40;97.10
26687;DHT22;14298;50.900;4.648;2023-03-26T02:37:53;8.40;97.10
26687;DHT22;14298;50.900;4.648;2023-03-26T02:40:22;8.40;97.10
26687;DHT22;14298;50.900;4.648;2023-03-26T02:42:51;8.40;97.10
26687;DHT22;14298;50.900;4.648;2023-03-26T02:45:19;8.50;97.10
26687;DHT22;14298;50.900;4.648;2023-03-26T02:47:48;8.50;97.10
26687;DHT22;14298;50.900;4.648;2023-03-26T02:50:17;8.50;97.10
26687;DHT22;14298;50.900;4.648;2023-03-26T02:52:45;8.50;97.10
26687;DHT22;14298;50.900;4.648;2023-03-26T02:55:15;8.50;97.10
26687;DHT22;14298;50.900;4.648;2023-03-26T02:57:44;8.50;97.10
26687;DHT22;14298;50.900;4.648;2023-03-26T03:00:12;8.50;97.10
26687;DHT22;14298;50.900;4.648;2023-03-26T03:02:41;8.50;97.10
26687;DHT22;14298;50.900;4.648;2023-03-26T03:05:11;8.60;97.10
26687;DHT22;14298;50.900;4.648;2023-03-26T03:07:40;8.60;97.10
26687;DHT22;14298;50.900;4.648;2023-03-26T03:10:10;8.70;97.10
26687;DHT22;14298;50.900;4.648;2023-03-26T03:12:40;8.70;97.10
26687;DHT22;14298;50.900;4.648;2023-03-26T03:15:09;8.60;97.10
26687;DHT22;14298;50.900;4.648;2023-03-26T03:17:37;8.60;97.10
26687;DHT22;14298;50.900;4.648;2023-03-26T03:20:07;8.60;97.10
26687;DHT22;14298;50.900;4.648;2023-03-26T03:22:36;8.70;97.10
26687;DHT22;14298;50.900;4.648;2023-03-26T03:25:05;8.70;97.10
26687;DHT22;14298;50.900;4.648;2023-03-26T03:27:35;8.70;97.10
26687;DHT22;14298;50.900;4.648;2023-03-26T03:30:06;8.80;97.10
26687;DHT22;14298;50.900;4.648;2023-03-26T03:32:35;8.80;97.10
26687;DHT22;14298;50.900;4.648;2023-03-26T03:35:05;8.80;97.10
26687;DHT22;14298;50.900;4.648;2023-03-26T03:37:34;8.70;97.10
26687;DHT22;14298;50.900;4.648;2023-03-26T03:40:02;8.70;97.10
26687;DHT22;14298;50.900;4.648;2023-03-26T03:42:33;8.70;97.10
26687;DHT22;14298;50.900;4.648;2023-03-26T03:45:07;8.70;97.10
26687;DHT22;14298;50.900;4.648;2023-03-26T03:47:32;8.70;97.10
26687;DHT22;14298;50.900;4.648;2023-03-26T03:50:20;8.70;97.10
26687;DHT22;14298;50.900;4.648;2023-03-26T03:52:48;8.70;97.10
26687;DHT22;14298;50.900;4.648;2023-03-26T03:55:17;8.60;97.10
26687;DHT22;14298;50.900;4.648;2023-03-26T03:57:45;8.70;97.10
26687;DHT22;14298;50.900;4.648;2023-03-26T04:00:14;8.70;97.10
26687;DHT22;14298;50.900;4.648;2023-03-26T04:02:42;8.70;97.10
26687;DHT22;14298;50.900;4.648;2023-03-26T04:05:12;8.70;97.10
26687;DHT22;14298;50.900;4.648;2023-03-26T04:07:40;8.60;97.10
26687;DHT22;14298;50.900;4.648;2023-03-26T04:10:11;8.60;97.10
26687;DHT22;14298;50.900;4.648;2023-03-26T04:12:38;8.70;97.10
26687;DHT22;14298;50.900;4.648;2023-03-26T04:15:07;8.70;97.10
26687;DHT22;14298;50.900;4.648;2023-03-26T04:17:35;8.60;97.10
26687;DHT22;14298;50.900;4.648;2023-03-26T04:20:06;8.60;97.10
26687;DHT22;14298;50.900;4.648;2023-03-26T04:22:35;8.60;97.10
26687;DHT22;14298;50.900;4.648;2023-03-26T04:25:03;8.70;97.10
26687;DHT22;14298;50.900;4.648;2023-03-26T04:27:32;8.70;97.10
26687;DHT22;14298;50.900;4.648;2023-03-26T04:30:05;8.70;97.10
26687;DHT22;14298;50.900;4.648;2023-03-26T04:32:34;8.70;97.10
26687;DHT22;14298;50.900;4.648;2023-03-26T04:35:04;8.70;97.10
26687;DHT22;14298;50.900;4.648;2023-03-26T04:37:35;8.70;97.10
26687;DHT22;14298;50.900;4.648;2023-03-26T04:40:11;8.70;97.10
26687;DHT22;14298;50.900;4.648;2023-03-26T04:42:38;8.70;97.10
26687;DHT22;14298;50.900;4.648;2023-03-26T04:45:13;8.80;97.10
26687;DHT22;14298;50.900;4.648;2023-03-26T04:47:43;8.80;97.10
26687;DHT22;14298;50.900;4.648;2023-03-26T04:50:12;8.70;97.10
26687;DHT22;14298;50.900;4.648;2023-03-26T04:52:42;8.70;97.10
26687;DHT22;14298;50.900;4.648;2023-03-26T04:55:15;8.70;97.10
26687;DHT22;14298;50.900;4.648;2023-03-26T04:57:43;8.70;97.10
26687;DHT22;14298;50.900;4.648;2023-03-26T05:00:15;8.70;97.10
26687;DHT22;14298;50.900;4.648;2023-03-26T05:02:45;8.70;97.10
26687;DHT22;14298;50.900;4.648;2023-03-26T05:05:17;8.60;97.10
26687;DHT22;14298;50.900;4.648;2023-03-26T05:07:45;8.60;97.10
26687;DHT22;14298;50.900;4.648;2023-03-26T05:10:14;8.70;97.10
26687;DHT22;14298;50.900;4.648;2023-03-26T05:12:43;8.70;97.10
26687;DHT22;14298;50.900;4.648;2023-03-26T05:15:12;8.70;97.10
26687;DHT22;14298;50.900;4.648;2023-03-26T05:17:41;8.70;97.10
26687;DHT22;14298;50.900;4.648;2023-03-26T05:20:16;8.70;97.10
26687;DHT22;14298;50.900;4.648;2023-03-26T05:22:44;8.80;97.10
26687;DHT22;14298;50.900;4.648;2023-03-26T05:25:12;8.80;97.10
26687;DHT22;14298;50.900;4.648;2023-03-26T05:27:41;8.80;97.10
26687;DHT22;14298;50.900;4.648;2023-03-26T05:30:17;8.80;97.10
26687;DHT22;14298;50.900;4.648;2023-03-26T05:32:41;8.80;97.10
26687;DHT22;14298;50.900;4.648;2023-03-26T05:35:10;8.70;97.10
26687;DHT22;14298;50.900;4.648;2023-03-26T05:37:58;8.70;97.10
26687;DHT22;14298;50.900;4.648;2023-03-26T05:40:26;8.70;97.10
26687;DHT22;14298;50.900;4.648;2023-03-26T05:42:54;8.70;97.10
26687;DHT22;14298;50.900;4.648;2023-03-26T05:45:23;8.60;97.10
26687;DHT22;14298;50.900;4.648;2023-03-26T05:47:51;8.60;97.10
26687;DHT22;14298;50.900;4.648;2023-03-26T05:50:21;8.60;97.10
26687;DHT22;14298;50.900;4.648;2023-03-26T05:52:50;8.60;97.10
26687;DHT22;14298;50.900;4.648;2023-03-26T05:55:18;8.60;97.10
26687;DHT22;14298;50.900;4.648;2023-03-26T05:57:48;8.50;97.10
26687;DHT22;14298;50.900;4.648;2023-03-26T06:00:16;8.50;97.10
26687;DHT22;14298;50.900;4.648;2023-03-26T06:02:45;8.40;97.10
26687;DHT22;14298;50.900;4.648;2023-03-26T06:05:14;8.30;97.10
26687;DHT22;14298;50.900;4.648;2023-03-26T06:07:42;8.30;97.10
26687;DHT22;14298;50.900;4.648;2023-03-26T06:10:10;8.20;97.10
26687;DHT22;14298;50.900;4.648;2023-03-26T06:12:39;8.10;97.10
26687;DHT22;14298;50.900;4.648;2023-03-26T06:15:08;8.00;97.10
26687;DHT22;14298;50.900;4.648;2023-03-26T06:17:37;8.00;97.10
26687;DHT22;14298;50.900;4.648;2023-03-26T06:20:06;7.90;97.10
26687;DHT22;14298;50.900;4.648;2023-03-26T06:22:35;7.80;97.10
26687;DHT22;14298;50.900;4.648;2023-03-26T06:25:04;7.80;97.10
26687;DHT22;14298;50.900;4.648;2023-03-26T06:27:32;7.80;97.10
26687;DHT22;14298;50.900;4.648;2023-03-26T06:30:01;7.70;97.10
26687;DHT22;14298;50.900;4.648;2023-03-26T06:32:29;7.70;97.10
26687;DHT22;14298;50.900;4.648;2023-03-26T06:34:57;7.70;97.10
26687;DHT22;14298;50.900;4.648;2023-03-26T06:37:26;7.60;97.10
26687;DHT22;14298;50.900;4.648;2023-03-26T06:39:54;7.60;97.10
26687;DHT22;14298;50.900;4.648;2023-03-26T06:42:22;7.60;97.10
26687;DHT22;14298;50.900;4.648;2023-03-26T06:44:51;7.60;97.10
26687;DHT22;14298;50.900;4.648;2023-03-26T06:47:19;7.50;97.10
26687;DHT22;14298;50.900;4.648;2023-03-26T06:49:47;7.50;97.10
26687;DHT22;14298;50.900;4.648;2023-03-26T06:52:15;7.40;97.10
26687;DHT22;14298;50.900;4.648;2023-03-26T06:54:44;7.40;97.10
26687;DHT22;14298;50.900;4.648;2023-03-26T06:57:12;7.40;97.10
26687;DHT22;14298;50.900;4.648;2023-03-26T06:59:41;7.30;97.10
26687;DHT22;14298;50.900;4.648;2023-03-26T07:02:10;7.30;97.10
26687;DHT22;14298;50.900;4.648;2023-03-26T07:04:38;7.30;97.10
26687;DHT22;14298;50.900;4.648;2023-03-26T07:07:07;7.30;97.10
26687;DHT22;14298;50.900;4.648;2023-03-26T07:09:35;7.30;97.10
26687;DHT22;14298;50.900;4.648;2023-03-26T07:12:04;7.30;97.10
26687;DHT22;14298;50.900;4.648;2023-03-26T07:14:32;7.30;97.10
26687;DHT22;14298;50.900;4.648;2023-03-26T07:17:00;7.30;97.10
26687;DHT22;14298;50.900;4.648;2023-03-26T07:19:28;7.30;97.10
26687;DHT22;14298;50.900;4.648;2023-03-26T07:21:57;7.20;97.10
26687;DHT22;14298;50.900;4.648;2023-03-26T07:24:26;7.10;97.10
26687;DHT22;14298;50.900;4.648;2023-03-26T07:29:56;7.10;97.10
26687;DHT22;14298;50.900;4.648;2023-03-26T07:32:52;7.10;97.10
26687;DHT22;14298;50.900;4.648;2023-03-26T07:35:42;7.20;97.10
26687;DHT22;14298;50.900;4.648;2023-03-26T07:41:04;6.90;97.10
26687;DHT22;14298;50.900;4.648;2023-03-26T07:46:20;6.80;97.10
26687;DHT22;14298;50.900;4.648;2023-03-26T07:48:50;6.70;97.10
26687;DHT22;14298;50.900;4.648;2023-03-26T07:51:20;6.70;97.10
26687;DHT22;14298;50.900;4.648;2023-03-26T07:53:49;6.80;97.10
26687;DHT22;14298;50.900;4.648;2023-03-26T07:56:27;6.80;97.10
26687;DHT22;14298;50.900;4.648;2023-03-26T07:59:28;6.80;97.10
26687;DHT22;14298;50.900;4.648;2023-03-26T08:07:55;6.60;97.10
26687;DHT22;14298;50.900;4.648;2023-03-26T08:10:25;6.60;97.10
26687;DHT22;14298;50.900;4.648;2023-03-26T08:13:08;6.60;97.10
26687;DHT22;14298;50.900;4.648;2023-03-26T08:18:34;6.60;97.10
26687;DHT22;14298;50.900;4.648;2023-03-26T08:24:19;6.70;97.10
26687;DHT22;14298;50.900;4.648;2023-03-26T08:27:00;6.70;97.10
26687;DHT22;14298;50.900;4.648;2023-03-26T08:29:41;6.70;97.10
26687;DHT22;14298;50.900;4.648;2023-03-26T08:32:17;6.80;97.10
26687;DHT22;14298;50.900;4.648;2023-03-26T08:34:46;6.80;97.10
26687;DHT22;14298;50.900;4.648;2023-03-26T08:37:14;6.70;97.10
26687;DHT22;14298;50.900;4.648;2023-03-26T08:39:43;6.80;97.10
26687;DHT22;14298;50.900;4.648;2023-03-26T08:47:52;6.80;97.10
26687;DHT22;14298;50.900;4.648;2023-03-26T09:04:39;6.60;97.10
26687;DHT22;14298;50.900;4.648;2023-03-26T09:07:32;6.60;97.10
26687;DHT22;14298;50.900;4.648;2023-03-26T09:10:41;6.70;97.10
26687;DHT22;14298;50.900;4.648;2023-03-26T09:16:19;6.70;97.10
26687;DHT22;14298;50.900;4.648;2023-03-26T09:19:14;6.80;97.10
26687;DHT22;14298;50.900;4.648;2023-03-26T09:21:58;6.80;97.10
26687;DHT22;14298;50.900;4.648;2023-03-26T09:35:37;6.90;97.10
26687;DHT22;14298;50.900;4.648;2023-03-26T09:37:59;6.90;97.10
26687;DHT22;14298;50.900;4.648;2023-03-26T09:46:16;6.80;97.10
26687;DHT22;14298;50.900;4.648;2023-03-26T09:49:05;6.80;97.10
26687;DHT22;14298;50.900;4.648;2023-03-26T09:54:37;6.80;97.10
26687;DHT22;14298;50.900;4.648;2023-03-26T10:00:29;7.00;97.10
26687;DHT22;14298;50.900;4.648;2023-03-26T10:03:29;6.90;97.10
26687;DHT22;14298;50.900;4.648;2023-03-26T10:06:12;6.90;97.10
26687;DHT22;14298;50.900;4.648;2023-03-26T10:09:16;6.90;97.10
26687;DHT22;14298;50.900;4.648;2023-03-26T10:14:41;6.90;97.10
26687;DHT22;14298;50.900;4.648;2023-03-26T10:17:45;7.00;97.10
26687;DHT22;14298;50.900;4.648;2023-03-26T10:20:31;7.00;97.10
26687;DHT22;14298;50.900;4.648;2023-03-26T10:25:57;7.20;97.10
26687;DHT22;14298;50.900;4.648;2023-03-26T10:37:12;7.20;97.10
26687;DHT22;14298;50.900;4.648;2023-03-26T10:42:51;7.10;97.10
26687;DHT22;14298;50.900;4.648;2023-03-26T10:48:23;7.20;97.10
26687;DHT22;14298;50.900;4.648;2023-03-26T10:54:10;7.30;97.10
26687;DHT22;14298;50.900;4.648;2023-03-26T10:56:45;7.00;97.10
26687;DHT22;14298;50.900;4.648;2023-03-26T10:59:15;7.00;97.10
26687;DHT22;14298;50.900;4.648;2023-03-26T11:02:04;7.00;97.10
26687;DHT22;14298;50.900;4.648;2023-03-26T11:10:10;7.20;97.10
26687;DHT22;14298;50.900;4.648;2023-03-26T11:12:52;7.20;97.10
26687;DHT22;14298;50.900;4.648;2023-03-26T11:18:19;7.20;97.10
26687;DHT22;14298;50.900;4.648;2023-03-26T11:21:00;7.20;97.10
26687;DHT22;14298;50.900;4.648;2023-03-26T11:28:53;7.30;97.10
26687;DHT22;14298;50.900;4.648;2023-03-26T11:31:41;7.30;97.10
26687;DHT22;14298;50.900;4.648;2023-03-26T11:34:19;7.40;97.10
26687;DHT22;14298;50.900;4.648;2023-03-26T11:36:45;7.40;97.10
26687;DHT22;14298;50.900;4.648;2023-03-26T11:39:23;7.50;97.10
26687;DHT22;14298;50.900;4.648;2023-03-26T11:42:16;7.40;97.10
26687;DHT22;14298;50.900;4.648;2023-03-26T11:44:29;7.50;97.10
26687;DHT22;14298;50.900;4.648;2023-03-26T11:47:01;7.60;97.10
26687;DHT22;14298;50.900;4.648;2023-03-26T11:49:31;7.60;97.10
26687;DHT22;14298;50.900;4.648;2023-03-26T11:52:00;7.60;97.10
26687;DHT22;14298;50.900;4.648;2023-03-26T11:54:29;7.60;97.10
26687;DHT22;14298;50.900;4.648;2023-03-26T11:57:07;7.70;97.10
26687;DHT22;14298;50.900;4.648;2023-03-26T11:59:33;7.80;97.10
26687;DHT22;14298;50.900;4.648;2023-03-26T12:04:43;7.60;97.10
26687;DHT22;14298;50.900;4.648;2023-03-26T12:07:14;7.60;97.10
26687;DHT22;14298;50.900;4.648;2023-03-26T12:09:55;7.70;97.10
26687;DHT22;14298;50.900;4.648;2023-03-26T12:12:32;7.70;97.10
26687;DHT22;14298;50.900;4.648;2023-03-26T12:15:01;7.70;97.10
26687;DHT22;14298;50.900;4.648;2023-03-26T12:17:35;7.80;97.10
26687;DHT22;14298;50.900;4.648;2023-03-26T12:22:58;8.10;97.10
26687;DHT22;14298;50.900;4.648;2023-03-26T12:25:29;7.90;97.10
26687;DHT22;14298;50.900;4.648;2023-03-26T12:28:04;7.60;97.10
26687;DHT22;14298;50.900;4.648;2023-03-26T12:30:35;7.60;97.10
26687;DHT22;14298;50.900;4.648;2023-03-26T12:33:06;7.50;97.10
26687;DHT22;14298;50.900;4.648;2023-03-26T12:35:35;7.60;97.10
26687;DHT22;14298;50.900;4.648;2023-03-26T12:38:24;7.80;97.10
26687;DHT22;14298;50.900;4.648;2023-03-26T12:41:14;7.80;97.10
26687;DHT22;14298;50.900;4.648;2023-03-26T12:43:50;7.70;97.10
26687;DHT22;14298;50.900;4.648;2023-03-26T12:46:30;7.70;97.10
26687;DHT22;14298;50.900;4.648;2023-03-26T12:49:02;7.70;97.10
26687;DHT22;14298;50.900;4.648;2023-03-26T12:59:47;8.10;97.10
26687;DHT22;14298;50.900;4.648;2023-03-26T13:05:35;8.20;97.10
26687;DHT22;14298;50.900;4.648;2023-03-26T13:14:03;7.90;97.10
26687;DHT22;14298;50.900;4.648;2023-03-26T13:16:51;7.80;97.10
26687;DHT22;14298;50.900;4.648;2023-03-26T13:19:41;7.90;97.10
26687;DHT22;14298;50.900;4.648;2023-03-26T13:27:52;8.00;99.90
26687;DHT22;14298;50.900;4.648;2023-03-26T13:30:51;8.10;99.90
26687;DHT22;14298;50.900;4.648;2023-03-26T13:38:44;8.10;10.80
26687;DHT22;14298;50.900;4.648;2023-03-26T13:47:20;7.90;34.50
26687;DHT22;14298;50.900;4.648;2023-03-26T13:49:59;7.80;41.40
26687;DHT22;14298;50.900;4.648;2023-03-26T13:55:34;7.70;72.20
26687;DHT22;14298;50.900;4.648;2023-03-26T14:03:48;7.90;97.10
26687;DHT22;14298;50.900;4.648;2023-03-26T14:09:02;8.10;97.10
26687;DHT22;14298;50.900;4.648;2023-03-26T14:11:40;8.10;97.10
26687;DHT22;14298;50.900;4.648;2023-03-26T14:14:16;8.00;97.10
26687;DHT22;14298;50.900;4.648;2023-03-26T14:16:46;8.00;97.10
26687;DHT22;14298;50.900;4.648;2023-03-26T14:19:37;7.90;97.10
26687;DHT22;14298;50.900;4.648;2023-03-26T14:22:37;7.90;97.10
26687;DHT22;14298;50.900;4.648;2023-03-26T14:27:50;8.10;97.10
26687;DHT22;14298;50.900;4.648;2023-03-26T14:30:26;8.10;97.10
26687;DHT22;14298;50.900;4.648;2023-03-26T14:43:58;7.90;97.10
26687;DHT22;14298;50.900;4.648;2023-03-26T14:46:55;7.70;97.10
26687;DHT22;14298;50.900;4.648;2023-03-26T14:49:31;7.60;97.10
26687;DHT22;14298;50.900;4.648;2023-03-26T14:54:41;7.60;97.10
26687;DHT22;14298;50.900;4.648;2023-03-26T14:57:23;7.70;97.10
26687;DHT22;14298;50.900;4.648;2023-03-26T15:05:37;7.80;97.10
26687;DHT22;14298;50.900;4.648;2023-03-26T15:28:33;7.90;97.10
26687;DHT22;14298;50.900;4.648;2023-03-26T15:34:04;7.90;97.10
26687;DHT22;14298;50.900;4.648;2023-03-26T15:39:34;8.00;97.10
26687;DHT22;14298;50.900;4.648;2023-03-26T15:45:35;8.10;97.10
26687;DHT22;14298;50.900;4.648;2023-03-26T15:48:15;8.20;97.10
26687;DHT22;14298;50.900;4.648;2023-03-26T15:50:48;8.30;97.10
26687;DHT22;14298;50.900;4.648;2023-03-26T15:53:20;8.40;97.10
26687;DHT22;14298;50.900;4.648;2023-03-26T15:56:04;8.30;97.10
26687;DHT22;14298;50.900;4.648;2023-03-26T15:58:45;8.20;97.10
26687;DHT22;14298;50.900;4.648;2023-03-26T16:06:59;8.10;97.10
26687;DHT22;14298;50.900;4.648;2023-03-26T16:09:32;7.90;97.10
26687;DHT22;14298;50.900;4.648;2023-03-26T16:12:29;7.80;97.10
26687;DHT22;14298;50.900;4.648;2023-03-26T16:15:18;7.80;97.10
26687;DHT22;14298;50.900;4.648;2023-03-26T16:23:34;7.80;88.50
26687;DHT22;14298;50.900;4.648;2023-03-26T16:31:19;7.60;80.00
26687;DHT22;14298;50.900;4.648;2023-03-26T16:36:37;7.50;78.50
26687;DHT22;14298;50.900;4.648;2023-03-26T16:39:16;7.50;79.40
26687;DHT22;14298;50.900;4.648;2023-03-26T16:41:53;7.40;82.20
26687;DHT22;14298;50.900;4.648;2023-03-26T16:44:32;7.40;83.90
26687;DHT22;14298;50.900;4.648;2023-03-26T16:47:28;7.40;88.50
26687;DHT22;14298;50.900;4.648;2023-03-26T16:50:21;7.30;86.00
26687;DHT22;14298;50.900;4.648;2023-03-26T16:58:35;7.20;91.90
26687;DHT22;14298;50.900;4.648;2023-03-26T17:04:17;7.40;88.40
26687;DHT22;14298;50.900;4.648;2023-03-26T17:10:01;7.40;94.10
26687;DHT22;14298;50.900;4.648;2023-03-26T17:12:36;7.40;97.10
26687;DHT22;14298;50.900;4.648;2023-03-26T17:17:56;7.40;97.10
26687;DHT22;14298;50.900;4.648;2023-03-26T17:20:38;7.30;97.10
26687;DHT22;14298;50.900;4.648;2023-03-26T17:28:50;7.30;97.10
26687;DHT22;14298;50.900;4.648;2023-03-26T17:34:41;7.20;97.10
26687;DHT22;14298;50.900;4.648;2023-03-26T17:42:28;6.80;97.10
26687;DHT22;14298;50.900;4.648;2023-03-26T17:45:06;6.70;97.10
26687;DHT22;14298;50.900;4.648;2023-03-26T17:47:35;6.60;97.10
26687;DHT22;14298;50.900;4.648;2023-03-26T17:50:29;6.50;97.10
26687;DHT22;14298;50.900;4.648;2023-03-26T17:52:55;6.40;97.10
26687;DHT22;14298;50.900;4.648;2023-03-26T17:55:44;6.30;97.10
26687;DHT22;14298;50.900;4.648;2023-03-26T17:58:34;6.10;97.10
26687;DHT22;14298;50.900;4.648;2023-03-26T18:01:29;6.20;97.10
26687;DHT22;14298;50.900;4.648;2023-03-26T18:04:00;6.10;97.10
26687;DHT22;14298;50.900;4.648;2023-03-26T18:06:36;6.10;97.10
26687;DHT22;14298;50.900;4.648;2023-03-26T18:12:16;6.00;97.10
26687;DHT22;14298;50.900;4.648;2023-03-26T18:15:01;6.00;97.10
26687;DHT22;14298;50.900;4.648;2023-03-26T18:17:30;6.10;97.10
26687;DHT22;14298;50.900;4.648;2023-03-26T18:20:04;6.00;97.10
26687;DHT22;14298;50.900;4.648;2023-03-26T18:22:33;5.90;97.10
26687;DHT22;14298;50.900;4.648;2023-03-26T18:25:02;5.90;97.10
26687;DHT22;14298;50.900;4.648;2023-03-26T18:27:39;5.90;97.10
26687;DHT22;14298;50.900;4.648;2023-03-26T18:30:21;5.90;97.10
26687;DHT22;14298;50.900;4.648;2023-03-26T18:33:09;5.90;97.10
26687;DHT22;14298;50.900;4.648;2023-03-26T18:35:26;6.00;97.10
26687;DHT22;14298;50.900;4.648;2023-03-26T18:37:57;6.00;97.10
26687;DHT22;14298;50.900;4.648;2023-03-26T18:40:31;5.90;97.10
26687;DHT22;14298;50.900;4.648;2023-03-26T18:42:59;5.90;97.10
26687;DHT22;14298;50.900;4.648;2023-03-26T18:45:37;5.80;97.10
26687;DHT22;14298;50.900;4.648;2023-03-26T18:48:18;5.80;97.10
26687;DHT22;14298;50.900;4.648;2023-03-26T18:50:45;5.70;97.10
26687;DHT22;14298;50.900;4.648;2023-03-26T18:53:24;5.70;97.10
26687;DHT22;14298;50.900;4.648;2023-03-26T18:55:49;5.70;97.10
26687;DHT22;14298;50.900;4.648;2023-03-26T18:58:27;5.60;97.10
26687;DHT22;14298;50.900;4.648;2023-03-26T19:00:58;5.60;97.10
26687;DHT22;14298;50.900;4.648;2023-03-26T19:03:29;5.60;97.10
26687;DHT22;14298;50.900;4.648;2023-03-26T19:06:01;5.60;97.10
26687;DHT22;14298;50.900;4.648;2023-03-26T19:08:31;5.50;97.10
26687;DHT22;14298;50.900;4.648;2023-03-26T19:11:00;5.50;97.10
26687;DHT22;14298;50.900;4.648;2023-03-26T19:13:31;5.50;97.10
26687;DHT22;14298;50.900;4.648;2023-03-26T19:16:02;5.50;97.10
26687;DHT22;14298;50.900;4.648;2023-03-26T19:18:30;5.50;97.10
26687;DHT22;14298;50.900;4.648;2023-03-26T19:21:00;5.40;97.10
26687;DHT22;14298;50.900;4.648;2023-03-26T19:23:35;5.40;97.10
26687;DHT22;14298;50.900;4.648;2023-03-26T19:26:11;5.40;97.10
26687;DHT22;14298;50.900;4.648;2023-03-26T19:28:42;5.30;97.10
26687;DHT22;14298;50.900;4.648;2023-03-26T19:31:18;5.30;97.10
26687;DHT22;14298;50.900;4.648;2023-03-26T19:34:01;5.30;97.10
26687;DHT22;14298;50.900;4.648;2023-03-26T19:36:32;5.30;97.10
26687;DHT22;14298;50.900;4.648;2023-03-26T19:39:10;5.40;97.10
26687;DHT22;14298;50.900;4.648;2023-03-26T19:41:41;5.40;97.10
26687;DHT22;14298;50.900;4.648;2023-03-26T19:44:24;5.40;97.10
26687;DHT22;14298;50.900;4.648;2023-03-26T19:49:57;5.50;97.10
26687;DHT22;14298;50.900;4.648;2023-03-26T19:52:32;5.60;97.10
26687;DHT22;14298;50.900;4.648;2023-03-26T19:55:19;5.60;97.10
26687;DHT22;14298;50.900;4.648;2023-03-26T19:57:46;5.70;97.10
26687;DHT22;14298;50.900;4.648;2023-03-26T20:00:15;5.80;97.10
26687;DHT22;14298;50.900;4.648;2023-03-26T20:02:45;5.80;97.10
26687;DHT22;14298;50.900;4.648;2023-03-26T20:05:25;5.80;97.10
26687;DHT22;14298;50.900;4.648;2023-03-26T20:07:57;5.80;97.10
26687;DHT22;14298;50.900;4.648;2023-03-26T20:10:26;5.80;97.10
26687;DHT22;14298;50.900;4.648;2023-03-26T20:12:55;5.80;97.10
26687;DHT22;14298;50.900;4.648;2023-03-26T20:15:27;5.90;97.10
26687;DHT22;14298;50.900;4.648;2023-03-26T20:18:04;5.80;97.10
26687;DHT22;14298;50.900;4.648;2023-03-26T20:20:32;5.80;97.10
26687;DHT22;14298;50.900;4.648;2023-03-26T20:23:04;5.80;97.10
26687;DHT22;14298;50.900;4.648;2023-03-26T20:25:33;5.80;97.10
26687;DHT22;14298;50.900;4.648;2023-03-26T20:28:02;5.80;97.10
26687;DHT22;14298;50.900;4.648;2023-03-26T20:30:30;5.80;97.10
26687;DHT22;14298;50.900;4.648;2023-03-26T20:32:59;5.80;97.10
26687;DHT22;14298;50.900;4.648;2023-03-26T20:35:30;5.80;97.10
26687;DHT22;14298;50.900;4.648;2023-03-26T20:37:59;5.70;97.10
26687;DHT22;14298;50.900;4.648;2023-03-26T20:40:27;5.70;97.10
26687;DHT22;14298;50.900;4.648;2023-03-26T20:42:56;5.70;97.10
26687;DHT22;14298;50.900;4.648;2023-03-26T20:45:24;5.70;97.10
26687;DHT22;14298;50.900;4.648;2023-03-26T20:47:52;5.70;97.10
26687;DHT22;14298;50.900;4.648;2023-03-26T20:50:21;5.80;97.10
26687;DHT22;14298;50.900;4.648;2023-03-26T20:52:50;5.80;97.10
26687;DHT22;14298;50.900;4.648;2023-03-26T20:55:20;5.80;97.10
26687;DHT22;14298;50.900;4.648;2023-03-26T20:57:48;5.80;97.10
26687;DHT22;14298;50.900;4.648;2023-03-26T21:00:17;5.80;97.10